sensor_id;sensor_type;location;lat;lon;timestamp;P1;durP1;ratioP1;P2;durP2;ratioP2
46551;SDS011;32278;51.810;4.712;2023-06-14T00:00:32;8.77;;;2.83;;
46551;SDS011;32278;51.810;4.712;2023-06-14T00:02:59;7.65;;;3.15;;
46551;SDS011;32278;51.810;4.712;2023-06-14T00:05:26;4.72;;;3.00;;
46551;SDS011;32278;51.810;4.712;2023-06-14T00:07:54;4.78;;;3.08;;
46551;SDS011;32278;51.810;4.712;2023-06-14T00:10:20;7.07;;;3.20;;
46551;SDS011;32278;51.810;4.712;2023-06-14T00:12:46;5.70;;;2.67;;
46551;SDS011;32278;51.810;4.712;2023-06-14T00:15:12;6.82;;;3.00;;
46551;SDS011;32278;51.810;4.712;2023-06-14T00:17:38;6.13;;;3.08;;
46551;SDS011;32278;51.810;4.712;2023-06-14T00:20:04;7.72;;;3.25;;
46551;SDS011;32278;51.810;4.712;2023-06-14T00:22:31;4.13;;;2.88;;
46551;SDS011;32278;51.810;4.712;2023-06-14T00:24:58;6.30;;;2.88;;
46551;SDS011;32278;51.810;4.712;2023-06-14T00:27:24;4.07;;;2.95;;
46551;SDS011;32278;51.810;4.712;2023-06-14T00:29:50;4.35;;;3.10;;
46551;SDS011;32278;51.810;4.712;2023-06-14T00:32:17;7.57;;;3.03;;
46551;SDS011;32278;51.810;4.712;2023-06-14T00:34:43;8.15;;;2.78;;
46551;SDS011;32278;51.810;4.712;2023-06-14T00:37:09;3.53;;;2.67;;
46551;SDS011;32278;51.810;4.712;2023-06-14T00:39:35;3.40;;;2.67;;
46551;SDS011;32278;51.810;4.712;2023-06-14T00:42:01;7.35;;;2.53;;
46551;SDS011;32278;51.810;4.712;2023-06-14T00:44:27;6.20;;;3.13;;
46551;SDS011;32278;51.810;4.712;2023-06-14T00:46:53;5.38;;;3.00;;
46551;SDS011;32278;51.810;4.712;2023-06-14T00:49:19;6.75;;;3.53;;
46551;SDS011;32278;51.810;4.712;2023-06-14T00:51:45;7.82;;;3.20;;
46551;SDS011;32278;51.810;4.712;2023-06-14T00:54:12;8.23;;;3.42;;
46551;SDS011;32278;51.810;4.712;2023-06-14T00:56:38;5.38;;;2.92;;
46551;SDS011;32278;51.810;4.712;2023-06-14T00:59:05;4.88;;;3.00;;
46551;SDS011;32278;51.810;4.712;2023-06-14T01:01:31;6.60;;;2.85;;
46551;SDS011;32278;51.810;4.712;2023-06-14T01:04:00;7.00;;;2.92;;
46551;SDS011;32278;51.810;4.712;2023-06-14T01:06:45;9.75;;;3.45;;
46551;SDS011;32278;51.810;4.712;2023-06-14T01:09:18;9.70;;;3.22;;
46551;SDS011;32278;51.810;4.712;2023-06-14T01:14:21;11.00;;;3.10;;
46551;SDS011;32278;51.810;4.712;2023-06-14T01:16:48;4.70;;;3.38;;
46551;SDS011;32278;51.810;4.712;2023-06-14T01:19:18;4.90;;;2.80;;
46551;SDS011;32278;51.810;4.712;2023-06-14T01:21:44;6.55;;;3.58;;
46551;SDS011;32278;51.810;4.712;2023-06-14T01:24:10;4.75;;;2.80;;
46551;SDS011;32278;51.810;4.712;2023-06-14T01:26:36;6.05;;;3.58;;
46551;SDS011;32278;51.810;4.712;2023-06-14T01:29:02;3.83;;;2.92;;
46551;SDS011;32278;51.810;4.712;2023-06-14T01:31:29;5.05;;;2.92;;
46551;SDS011;32278;51.810;4.712;2023-06-14T01:34:07;6.55;;;3.50;;
46551;SDS011;32278;51.810;4.712;2023-06-14T01:36:33;5.55;;;3.10;;
46551;SDS011;32278;51.810;4.712;2023-06-14T01:39:02;4.68;;;2.83;;
46551;SDS011;32278;51.810;4.712;2023-06-14T01:41:28;5.45;;;3.17;;
46551;SDS011;32278;51.810;4.712;2023-06-14T01:43:55;7.72;;;3.33;;
46551;SDS011;32278;51.810;4.712;2023-06-14T01:46:22;6.50;;;3.25;;
46551;SDS011;32278;51.810;4.712;2023-06-14T01:48:49;5.20;;;2.80;;
46551;SDS011;32278;51.810;4.712;2023-06-14T01:51:15;7.78;;;3.33;;
46551;SDS011;32278;51.810;4.712;2023-06-14T01:53:41;9.77;;;3.33;;
46551;SDS011;32278;51.810;4.712;2023-06-14T01:56:07;6.40;;;2.97;;
46551;SDS011;32278;51.810;4.712;2023-06-14T01:58:33;4.30;;;2.95;;
46551;SDS011;32278;51.810;4.712;2023-06-14T02:01:00;5.78;;;3.00;;
46551;SDS011;32278;51.810;4.712;2023-06-14T02:03:27;5.90;;;3.72;;
46551;SDS011;32278;51.810;4.712;2023-06-14T02:05:53;8.60;;;3.30;;
46551;SDS011;32278;51.810;4.712;2023-06-14T02:08:20;10.15;;;3.30;;
46551;SDS011;32278;51.810;4.712;2023-06-14T02:10:46;4.47;;;3.20;;
46551;SDS011;32278;51.810;4.712;2023-06-14T02:13:12;6.78;;;3.30;;
46551;SDS011;32278;51.810;4.712;2023-06-14T02:15:38;16.33;;;3.90;;
46551;SDS011;32278;51.810;4.712;2023-06-14T02:18:05;3.55;;;2.90;;
46551;SDS011;32278;51.810;4.712;2023-06-14T02:20:31;6.47;;;3.33;;
46551;SDS011;32278;51.810;4.712;2023-06-14T02:22:57;6.22;;;3.15;;
46551;SDS011;32278;51.810;4.712;2023-06-14T02:25:23;8.07;;;3.67;;
46551;SDS011;32278;51.810;4.712;2023-06-14T02:27:49;5.00;;;2.88;;
46551;SDS011;32278;51.810;4.712;2023-06-14T02:30:15;7.93;;;3.15;;
46551;SDS011;32278;51.810;4.712;2023-06-14T02:32:40;7.25;;;3.55;;
46551;SDS011;32278;51.810;4.712;2023-06-14T02:35:08;7.25;;;3.45;;
46551;SDS011;32278;51.810;4.712;2023-06-14T02:37:34;4.35;;;3.15;;
46551;SDS011;32278;51.810;4.712;2023-06-14T02:40:00;7.35;;;3.47;;
46551;SDS011;32278;51.810;4.712;2023-06-14T02:42:26;6.25;;;3.28;;
46551;SDS011;32278;51.810;4.712;2023-06-14T02:44:52;4.05;;;2.83;;
46551;SDS011;32278;51.810;4.712;2023-06-14T02:47:18;4.13;;;3.17;;
46551;SDS011;32278;51.810;4.712;2023-06-14T02:49:44;9.35;;;3.00;;
46551;SDS011;32278;51.810;4.712;2023-06-14T02:52:11;5.72;;;3.45;;
46551;SDS011;32278;51.810;4.712;2023-06-14T02:54:37;5.68;;;3.00;;
46551;SDS011;32278;51.810;4.712;2023-06-14T02:57:03;6.22;;;2.65;;
46551;SDS011;32278;51.810;4.712;2023-06-14T02:59:32;8.02;;;4.60;;
46551;SDS011;32278;51.810;4.712;2023-06-14T03:01:58;8.63;;;3.58;;
46551;SDS011;32278;51.810;4.712;2023-06-14T03:04:24;9.80;;;3.60;;
46551;SDS011;32278;51.810;4.712;2023-06-14T03:06:50;8.32;;;3.53;;
46551;SDS011;32278;51.810;4.712;2023-06-14T03:09:17;7.78;;;3.78;;
46551;SDS011;32278;51.810;4.712;2023-06-14T03:11:44;11.73;;;3.30;;
46551;SDS011;32278;51.810;4.712;2023-06-14T03:14:10;7.10;;;3.20;;
46551;SDS011;32278;51.810;4.712;2023-06-14T03:16:36;8.50;;;3.58;;
46551;SDS011;32278;51.810;4.712;2023-06-14T03:19:02;7.60;;;3.25;;
46551;SDS011;32278;51.810;4.712;2023-06-14T03:21:28;6.95;;;3.70;;
46551;SDS011;32278;51.810;4.712;2023-06-14T03:23:55;8.55;;;3.80;;
46551;SDS011;32278;51.810;4.712;2023-06-14T03:26:21;11.27;;;3.88;;
46551;SDS011;32278;51.810;4.712;2023-06-14T03:28:47;7.90;;;3.72;;
46551;SDS011;32278;51.810;4.712;2023-06-14T03:31:14;6.35;;;3.33;;
46551;SDS011;32278;51.810;4.712;2023-06-14T03:33:41;10.88;;;3.35;;
46551;SDS011;32278;51.810;4.712;2023-06-14T03:36:07;6.05;;;3.80;;
46551;SDS011;32278;51.810;4.712;2023-06-14T03:38:33;9.23;;;3.47;;
46551;SDS011;32278;51.810;4.712;2023-06-14T03:40:59;6.18;;;3.60;;
46551;SDS011;32278;51.810;4.712;2023-06-14T03:43:26;8.38;;;3.90;;
46551;SDS011;32278;51.810;4.712;2023-06-14T03:45:51;4.88;;;3.70;;
46551;SDS011;32278;51.810;4.712;2023-06-14T03:48:17;7.53;;;4.18;;
46551;SDS011;32278;51.810;4.712;2023-06-14T03:50:43;7.95;;;4.07;;
46551;SDS011;32278;51.810;4.712;2023-06-14T03:53:09;11.50;;;4.10;;
46551;SDS011;32278;51.810;4.712;2023-06-14T03:55:35;10.50;;;3.75;;
46551;SDS011;32278;51.810;4.712;2023-06-14T03:58:02;5.10;;;3.35;;
46551;SDS011;32278;51.810;4.712;2023-06-14T04:00:28;7.65;;;3.55;;
46551;SDS011;32278;51.810;4.712;2023-06-14T04:02:55;7.53;;;3.90;;
46551;SDS011;32278;51.810;4.712;2023-06-14T04:05:21;9.75;;;3.95;;
46551;SDS011;32278;51.810;4.712;2023-06-14T04:07:51;8.25;;;3.90;;
46551;SDS011;32278;51.810;4.712;2023-06-14T04:10:20;6.25;;;3.42;;
46551;SDS011;32278;51.810;4.712;2023-06-14T04:12:48;7.22;;;3.85;;
46551;SDS011;32278;51.810;4.712;2023-06-14T04:15:14;8.82;;;3.92;;
46551;SDS011;32278;51.810;4.712;2023-06-14T04:17:40;9.43;;;3.67;;
46551;SDS011;32278;51.810;4.712;2023-06-14T04:20:06;9.32;;;3.67;;
46551;SDS011;32278;51.810;4.712;2023-06-14T04:22:35;7.93;;;4.13;;
46551;SDS011;32278;51.810;4.712;2023-06-14T04:25:01;9.75;;;3.67;;
46551;SDS011;32278;51.810;4.712;2023-06-14T04:27:28;8.35;;;3.13;;
46551;SDS011;32278;51.810;4.712;2023-06-14T04:29:56;5.28;;;3.50;;
46551;SDS011;32278;51.810;4.712;2023-06-14T04:32:26;9.55;;;3.53;;
46551;SDS011;32278;51.810;4.712;2023-06-14T04:34:53;8.80;;;3.83;;
46551;SDS011;32278;51.810;4.712;2023-06-14T04:37:20;8.93;;;3.75;;
46551;SDS011;32278;51.810;4.712;2023-06-14T04:39:46;12.25;;;3.83;;
46551;SDS011;32278;51.810;4.712;2023-06-14T04:42:12;7.40;;;3.88;;
46551;SDS011;32278;51.810;4.712;2023-06-14T04:44:40;10.13;;;3.42;;
46551;SDS011;32278;51.810;4.712;2023-06-14T04:47:06;8.52;;;3.63;;
46551;SDS011;32278;51.810;4.712;2023-06-14T04:49:32;4.93;;;2.97;;
46551;SDS011;32278;51.810;4.712;2023-06-14T04:51:59;7.80;;;3.58;;
46551;SDS011;32278;51.810;4.712;2023-06-14T04:54:26;6.65;;;3.25;;
46551;SDS011;32278;51.810;4.712;2023-06-14T04:56:52;9.48;;;4.20;;
46551;SDS011;32278;51.810;4.712;2023-06-14T04:59:20;10.55;;;3.63;;
46551;SDS011;32278;51.810;4.712;2023-06-14T05:01:48;8.07;;;3.00;;
46551;SDS011;32278;51.810;4.712;2023-06-14T05:04:15;10.07;;;3.88;;
46551;SDS011;32278;51.810;4.712;2023-06-14T05:06:44;10.88;;;3.60;;
46551;SDS011;32278;51.810;4.712;2023-06-14T05:09:11;12.23;;;3.28;;
46551;SDS011;32278;51.810;4.712;2023-06-14T05:11:37;7.55;;;3.33;;
46551;SDS011;32278;51.810;4.712;2023-06-14T05:14:03;5.95;;;3.30;;
46551;SDS011;32278;51.810;4.712;2023-06-14T05:16:29;11.77;;;3.70;;
46551;SDS011;32278;51.810;4.712;2023-06-14T05:18:55;9.85;;;3.50;;
46551;SDS011;32278;51.810;4.712;2023-06-14T05:21:21;7.25;;;3.08;;
46551;SDS011;32278;51.810;4.712;2023-06-14T05:23:47;4.20;;;2.70;;
46551;SDS011;32278;51.810;4.712;2023-06-14T05:26:13;12.07;;;3.85;;
46551;SDS011;32278;51.810;4.712;2023-06-14T05:28:39;7.63;;;3.42;;
46551;SDS011;32278;51.810;4.712;2023-06-14T05:31:05;5.32;;;3.20;;
46551;SDS011;32278;51.810;4.712;2023-06-14T05:33:31;11.93;;;3.40;;
46551;SDS011;32278;51.810;4.712;2023-06-14T05:35:57;10.13;;;3.30;;
46551;SDS011;32278;51.810;4.712;2023-06-14T05:38:23;4.53;;;2.78;;
46551;SDS011;32278;51.810;4.712;2023-06-14T05:40:50;9.10;;;3.30;;
46551;SDS011;32278;51.810;4.712;2023-06-14T05:43:16;8.82;;;4.95;;
46551;SDS011;32278;51.810;4.712;2023-06-14T05:45:42;8.23;;;3.15;;
46551;SDS011;32278;51.810;4.712;2023-06-14T05:48:08;7.25;;;4.45;;
46551;SDS011;32278;51.810;4.712;2023-06-14T05:50:34;7.40;;;3.33;;
46551;SDS011;32278;51.810;4.712;2023-06-14T05:53:00;7.30;;;3.20;;
46551;SDS011;32278;51.810;4.712;2023-06-14T05:55:26;10.40;;;3.67;;
46551;SDS011;32278;51.810;4.712;2023-06-14T05:57:52;9.00;;;3.40;;
46551;SDS011;32278;51.810;4.712;2023-06-14T06:00:18;6.88;;;3.22;;
46551;SDS011;32278;51.810;4.712;2023-06-14T06:02:45;6.90;;;2.90;;
46551;SDS011;32278;51.810;4.712;2023-06-14T06:05:12;5.72;;;2.88;;
46551;SDS011;32278;51.810;4.712;2023-06-14T06:07:40;7.25;;;3.35;;
46551;SDS011;32278;51.810;4.712;2023-06-14T06:10:06;8.20;;;2.67;;
46551;SDS011;32278;51.810;4.712;2023-06-14T06:12:32;15.75;;;3.50;;
46551;SDS011;32278;51.810;4.712;2023-06-14T06:14:59;8.85;;;3.30;;
46551;SDS011;32278;51.810;4.712;2023-06-14T06:17:25;6.45;;;3.15;;
46551;SDS011;32278;51.810;4.712;2023-06-14T06:19:51;7.88;;;3.10;;
46551;SDS011;32278;51.810;4.712;2023-06-14T06:22:17;9.57;;;3.60;;
46551;SDS011;32278;51.810;4.712;2023-06-14T06:24:43;10.38;;;3.50;;
46551;SDS011;32278;51.810;4.712;2023-06-14T06:27:09;4.47;;;2.90;;
46551;SDS011;32278;51.810;4.712;2023-06-14T06:29:35;7.70;;;3.67;;
46551;SDS011;32278;51.810;4.712;2023-06-14T06:32:01;7.28;;;3.70;;
46551;SDS011;32278;51.810;4.712;2023-06-14T06:34:27;5.97;;;3.15;;
46551;SDS011;32278;51.810;4.712;2023-06-14T06:36:53;7.65;;;2.97;;
46551;SDS011;32278;51.810;4.712;2023-06-14T06:39:20;7.47;;;3.85;;
46551;SDS011;32278;51.810;4.712;2023-06-14T06:41:46;12.10;;;3.13;;
46551;SDS011;32278;51.810;4.712;2023-06-14T06:44:12;5.13;;;3.20;;
46551;SDS011;32278;51.810;4.712;2023-06-14T06:46:38;12.38;;;3.33;;
46551;SDS011;32278;51.810;4.712;2023-06-14T06:49:07;4.57;;;3.08;;
46551;SDS011;32278;51.810;4.712;2023-06-14T06:51:34;9.50;;;3.22;;
46551;SDS011;32278;51.810;4.712;2023-06-14T06:54:04;12.13;;;3.47;;
46551;SDS011;32278;51.810;4.712;2023-06-14T06:56:31;6.32;;;2.97;;
46551;SDS011;32278;51.810;4.712;2023-06-14T06:58:56;6.75;;;3.25;;
46551;SDS011;32278;51.810;4.712;2023-06-14T07:01:22;9.18;;;3.28;;
46551;SDS011;32278;51.810;4.712;2023-06-14T07:03:49;5.32;;;2.83;;
46551;SDS011;32278;51.810;4.712;2023-06-14T07:06:15;4.60;;;3.00;;
46551;SDS011;32278;51.810;4.712;2023-06-14T07:08:43;6.80;;;2.80;;
46551;SDS011;32278;51.810;4.712;2023-06-14T07:11:09;6.65;;;2.95;;
46551;SDS011;32278;51.810;4.712;2023-06-14T07:13:35;6.60;;;3.35;;
46551;SDS011;32278;51.810;4.712;2023-06-14T07:16:01;7.75;;;3.33;;
46551;SDS011;32278;51.810;4.712;2023-06-14T07:18:27;7.53;;;2.90;;
46551;SDS011;32278;51.810;4.712;2023-06-14T07:20:53;9.23;;;3.13;;
46551;SDS011;32278;51.810;4.712;2023-06-14T07:23:21;5.68;;;3.28;;
46551;SDS011;32278;51.810;4.712;2023-06-14T07:25:46;6.85;;;3.22;;
46551;SDS011;32278;51.810;4.712;2023-06-14T07:28:12;5.72;;;3.42;;
46551;SDS011;32278;51.810;4.712;2023-06-14T07:30:38;8.27;;;3.03;;
46551;SDS011;32278;51.810;4.712;2023-06-14T07:33:04;5.78;;;3.20;;
46551;SDS011;32278;51.810;4.712;2023-06-14T07:35:31;10.82;;;2.90;;
46551;SDS011;32278;51.810;4.712;2023-06-14T07:37:57;5.63;;;2.80;;
46551;SDS011;32278;51.810;4.712;2023-06-14T07:40:23;4.10;;;3.15;;
46551;SDS011;32278;51.810;4.712;2023-06-14T07:42:48;4.15;;;2.97;;
46551;SDS011;32278;51.810;4.712;2023-06-14T07:45:15;6.30;;;2.70;;
46551;SDS011;32278;51.810;4.712;2023-06-14T07:47:41;11.48;;;3.60;;
46551;SDS011;32278;51.810;4.712;2023-06-14T07:50:07;13.82;;;3.28;;
46551;SDS011;32278;51.810;4.712;2023-06-14T07:52:34;4.47;;;3.30;;
46551;SDS011;32278;51.810;4.712;2023-06-14T07:55:00;7.85;;;3.08;;
46551;SDS011;32278;51.810;4.712;2023-06-14T07:57:26;5.80;;;3.00;;
46551;SDS011;32278;51.810;4.712;2023-06-14T07:59:52;4.85;;;2.90;;
46551;SDS011;32278;51.810;4.712;2023-06-14T08:02:18;6.32;;;2.88;;
46551;SDS011;32278;51.810;4.712;2023-06-14T08:04:44;6.07;;;2.83;;
46551;SDS011;32278;51.810;4.712;2023-06-14T08:07:11;7.75;;;2.90;;
46551;SDS011;32278;51.810;4.712;2023-06-14T08:09:37;6.55;;;2.92;;
46551;SDS011;32278;51.810;4.712;2023-06-14T08:12:04;10.88;;;2.58;;
46551;SDS011;32278;51.810;4.712;2023-06-14T08:14:32;7.93;;;2.90;;
46551;SDS011;32278;51.810;4.712;2023-06-14T08:16:58;3.80;;;3.05;;
46551;SDS011;32278;51.810;4.712;2023-06-14T08:19:24;11.43;;;2.75;;
46551;SDS011;32278;51.810;4.712;2023-06-14T08:21:51;7.50;;;3.08;;
46551;SDS011;32278;51.810;4.712;2023-06-14T08:24:20;9.20;;;3.20;;
46551;SDS011;32278;51.810;4.712;2023-06-14T08:26:49;3.85;;;2.40;;
46551;SDS011;32278;51.810;4.712;2023-06-14T08:29:15;9.27;;;2.92;;
46551;SDS011;32278;51.810;4.712;2023-06-14T08:31:41;5.68;;;3.08;;
46551;SDS011;32278;51.810;4.712;2023-06-14T08:34:07;9.95;;;3.08;;
46551;SDS011;32278;51.810;4.712;2023-06-14T08:36:34;6.32;;;2.97;;
46551;SDS011;32278;51.810;4.712;2023-06-14T08:39:00;5.45;;;2.80;;
46551;SDS011;32278;51.810;4.712;2023-06-14T08:41:26;4.63;;;2.75;;
46551;SDS011;32278;51.810;4.712;2023-06-14T08:43:54;7.78;;;3.30;;
46551;SDS011;32278;51.810;4.712;2023-06-14T08:46:20;7.28;;;2.92;;
46551;SDS011;32278;51.810;4.712;2023-06-14T08:48:50;3.35;;;2.15;;
46551;SDS011;32278;51.810;4.712;2023-06-14T08:51:19;9.73;;;3.20;;
46551;SDS011;32278;51.810;4.712;2023-06-14T08:53:52;3.65;;;2.45;;
46551;SDS011;32278;51.810;4.712;2023-06-14T08:56:18;10.02;;;3.15;;
46551;SDS011;32278;51.810;4.712;2023-06-14T08:58:45;7.80;;;3.00;;
46551;SDS011;32278;51.810;4.712;2023-06-14T09:01:13;6.88;;;3.17;;
46551;SDS011;32278;51.810;4.712;2023-06-14T09:03:41;5.68;;;2.65;;
46551;SDS011;32278;51.810;4.712;2023-06-14T09:06:08;11.82;;;2.63;;
46551;SDS011;32278;51.810;4.712;2023-06-14T09:08:38;6.43;;;3.30;;
46551;SDS011;32278;51.810;4.712;2023-06-14T09:11:05;7.95;;;3.25;;
46551;SDS011;32278;51.810;4.712;2023-06-14T09:13:31;5.30;;;3.13;;
46551;SDS011;32278;51.810;4.712;2023-06-14T09:15:57;5.93;;;2.63;;
46551;SDS011;32278;51.810;4.712;2023-06-14T09:18:32;7.53;;;2.72;;
46551;SDS011;32278;51.810;4.712;2023-06-14T09:20:59;5.43;;;2.40;;
46551;SDS011;32278;51.810;4.712;2023-06-14T09:23:25;8.90;;;2.70;;
46551;SDS011;32278;51.810;4.712;2023-06-14T09:25:51;4.38;;;2.35;;
46551;SDS011;32278;51.810;4.712;2023-06-14T09:28:17;4.85;;;2.45;;
46551;SDS011;32278;51.810;4.712;2023-06-14T09:30:43;7.10;;;2.33;;
46551;SDS011;32278;51.810;4.712;2023-06-14T09:33:09;8.82;;;2.28;;
46551;SDS011;32278;51.810;4.712;2023-06-14T09:35:35;5.68;;;2.45;;
46551;SDS011;32278;51.810;4.712;2023-06-14T09:38:01;4.45;;;2.58;;
46551;SDS011;32278;51.810;4.712;2023-06-14T09:40:27;8.68;;;2.13;;
46551;SDS011;32278;51.810;4.712;2023-06-14T09:42:53;3.25;;;2.35;;
46551;SDS011;32278;51.810;4.712;2023-06-14T09:45:22;3.90;;;2.30;;
46551;SDS011;32278;51.810;4.712;2023-06-14T09:47:49;5.00;;;2.42;;
46551;SDS011;32278;51.810;4.712;2023-06-14T09:50:15;4.30;;;2.40;;
46551;SDS011;32278;51.810;4.712;2023-06-14T09:52:42;2.97;;;2.25;;
46551;SDS011;32278;51.810;4.712;2023-06-14T09:55:11;3.22;;;1.88;;
46551;SDS011;32278;51.810;4.712;2023-06-14T09:57:38;1.83;;;1.70;;
46551;SDS011;32278;51.810;4.712;2023-06-14T10:00:07;4.38;;;2.58;;
46551;SDS011;32278;51.810;4.712;2023-06-14T10:02:36;3.83;;;2.25;;
46551;SDS011;32278;51.810;4.712;2023-06-14T10:05:07;4.72;;;2.10;;
46551;SDS011;32278;51.810;4.712;2023-06-14T10:07:44;3.55;;;2.42;;
46551;SDS011;32278;51.810;4.712;2023-06-14T10:10:14;4.13;;;1.65;;
46551;SDS011;32278;51.810;4.712;2023-06-14T10:12:40;3.75;;;2.28;;
46551;SDS011;32278;51.810;4.712;2023-06-14T10:15:07;2.45;;;1.70;;
46551;SDS011;32278;51.810;4.712;2023-06-14T10:20:11;5.72;;;1.80;;
46551;SDS011;32278;51.810;4.712;2023-06-14T10:22:43;2.80;;;2.08;;
46551;SDS011;32278;51.810;4.712;2023-06-14T10:25:13;4.15;;;2.22;;
46551;SDS011;32278;51.810;4.712;2023-06-14T10:27:39;6.40;;;1.80;;
46551;SDS011;32278;51.810;4.712;2023-06-14T10:30:11;3.70;;;1.88;;
46551;SDS011;32278;51.810;4.712;2023-06-14T10:35:25;2.45;;;1.58;;
46551;SDS011;32278;51.810;4.712;2023-06-14T10:37:51;1.92;;;1.30;;
46551;SDS011;32278;51.810;4.712;2023-06-14T10:40:30;1.50;;;1.40;;
46551;SDS011;32278;51.810;4.712;2023-06-14T10:42:56;2.15;;;1.55;;
46551;SDS011;32278;51.810;4.712;2023-06-14T10:45:22;2.63;;;1.40;;
46551;SDS011;32278;51.810;4.712;2023-06-14T10:47:48;1.80;;;1.60;;
46551;SDS011;32278;51.810;4.712;2023-06-14T10:50:17;1.75;;;1.30;;
46551;SDS011;32278;51.810;4.712;2023-06-14T10:52:44;1.40;;;1.30;;
46551;SDS011;32278;51.810;4.712;2023-06-14T10:55:14;5.22;;;1.33;;
46551;SDS011;32278;51.810;4.712;2023-06-14T10:57:42;1.75;;;0.98;;
46551;SDS011;32278;51.810;4.712;2023-06-14T11:00:08;1.35;;;1.20;;
46551;SDS011;32278;51.810;4.712;2023-06-14T11:05:08;1.38;;;1.25;;
46551;SDS011;32278;51.810;4.712;2023-06-14T11:10:25;1.10;;;1.00;;
46551;SDS011;32278;51.810;4.712;2023-06-14T11:12:52;3.05;;;1.17;;
46551;SDS011;32278;51.810;4.712;2023-06-14T11:15:22;9.73;;;1.65;;
46551;SDS011;32278;51.810;4.712;2023-06-14T11:17:53;1.58;;;1.40;;
46551;SDS011;32278;51.810;4.712;2023-06-14T11:20:19;4.68;;;1.45;;
46551;SDS011;32278;51.810;4.712;2023-06-14T11:22:45;3.00;;;1.30;;
46551;SDS011;32278;51.810;4.712;2023-06-14T11:25:11;3.65;;;1.50;;
46551;SDS011;32278;51.810;4.712;2023-06-14T11:27:37;3.80;;;1.17;;
46551;SDS011;32278;51.810;4.712;2023-06-14T11:30:06;1.38;;;1.13;;
46551;SDS011;32278;51.810;4.712;2023-06-14T11:32:33;2.33;;;1.10;;
46551;SDS011;32278;51.810;4.712;2023-06-14T11:34:59;2.20;;;1.30;;
46551;SDS011;32278;51.810;4.712;2023-06-14T11:37:25;3.50;;;1.58;;
46551;SDS011;32278;51.810;4.712;2023-06-14T11:39:58;1.35;;;1.20;;
46551;SDS011;32278;51.810;4.712;2023-06-14T11:42:24;4.38;;;1.60;;
46551;SDS011;32278;51.810;4.712;2023-06-14T11:44:53;8.27;;;1.30;;
46551;SDS011;32278;51.810;4.712;2023-06-14T11:47:19;3.17;;;1.52;;
46551;SDS011;32278;51.810;4.712;2023-06-14T11:49:45;6.05;;;1.40;;
46551;SDS011;32278;51.810;4.712;2023-06-14T11:52:12;2.20;;;1.20;;
46551;SDS011;32278;51.810;4.712;2023-06-14T11:54:38;4.28;;;1.42;;
46551;SDS011;32278;51.810;4.712;2023-06-14T11:57:05;2.20;;;1.38;;
46551;SDS011;32278;51.810;4.712;2023-06-14T11:59:32;1.65;;;1.15;;
46551;SDS011;32278;51.810;4.712;2023-06-14T12:01:58;2.88;;;1.40;;
46551;SDS011;32278;51.810;4.712;2023-06-14T12:04:28;2.72;;;1.23;;
46551;SDS011;32278;51.810;4.712;2023-06-14T12:06:54;2.15;;;1.40;;
46551;SDS011;32278;51.810;4.712;2023-06-14T12:09:22;3.97;;;1.50;;
46551;SDS011;32278;51.810;4.712;2023-06-14T12:11:49;1.85;;;0.95;;
46551;SDS011;32278;51.810;4.712;2023-06-14T12:14:15;1.50;;;1.40;;
46551;SDS011;32278;51.810;4.712;2023-06-14T12:16:41;1.70;;;1.23;;
46551;SDS011;32278;51.810;4.712;2023-06-14T12:19:14;1.42;;;1.33;;
46551;SDS011;32278;51.810;4.712;2023-06-14T12:21:41;1.85;;;1.33;;
46551;SDS011;32278;51.810;4.712;2023-06-14T12:24:08;5.93;;;1.52;;
46551;SDS011;32278;51.810;4.712;2023-06-14T12:26:40;5.57;;;1.40;;
46551;SDS011;32278;51.810;4.712;2023-06-14T12:29:06;3.50;;;1.30;;
46551;SDS011;32278;51.810;4.712;2023-06-14T12:31:32;2.85;;;1.60;;
46551;SDS011;32278;51.810;4.712;2023-06-14T12:33:58;2.55;;;1.20;;
46551;SDS011;32278;51.810;4.712;2023-06-14T12:36:25;3.78;;;1.67;;
46551;SDS011;32278;51.810;4.712;2023-06-14T12:38:51;2.65;;;1.38;;
46551;SDS011;32278;51.810;4.712;2023-06-14T12:41:21;1.95;;;1.35;;
46551;SDS011;32278;51.810;4.712;2023-06-14T12:43:47;2.72;;;1.55;;
46551;SDS011;32278;51.810;4.712;2023-06-14T12:46:13;5.13;;;1.40;;
46551;SDS011;32278;51.810;4.712;2023-06-14T12:48:39;3.63;;;1.48;;
46551;SDS011;32278;51.810;4.712;2023-06-14T12:51:05;7.63;;;1.27;;
46551;SDS011;32278;51.810;4.712;2023-06-14T12:53:31;2.85;;;1.30;;
46551;SDS011;32278;51.810;4.712;2023-06-14T12:55:57;1.92;;;1.30;;
46551;SDS011;32278;51.810;4.712;2023-06-14T12:58:23;1.63;;;1.30;;
46551;SDS011;32278;51.810;4.712;2023-06-14T13:00:49;2.55;;;1.20;;
46551;SDS011;32278;51.810;4.712;2023-06-14T13:03:15;1.27;;;1.20;;
46551;SDS011;32278;51.810;4.712;2023-06-14T13:05:41;3.47;;;1.90;;
46551;SDS011;32278;51.810;4.712;2023-06-14T13:08:08;4.18;;;1.35;;
46551;SDS011;32278;51.810;4.712;2023-06-14T13:10:34;5.70;;;2.15;;
46551;SDS011;32278;51.810;4.712;2023-06-14T13:13:00;1.85;;;1.27;;
46551;SDS011;32278;51.810;4.712;2023-06-14T13:15:27;1.92;;;1.30;;
46551;SDS011;32278;51.810;4.712;2023-06-14T13:17:53;4.05;;;1.58;;
46551;SDS011;32278;51.810;4.712;2023-06-14T13:20:20;2.83;;;1.30;;
46551;SDS011;32278;51.810;4.712;2023-06-14T13:22:46;1.98;;;1.60;;
46551;SDS011;32278;51.810;4.712;2023-06-14T13:25:12;6.20;;;1.63;;
46551;SDS011;32278;51.810;4.712;2023-06-14T13:27:38;2.53;;;1.58;;
46551;SDS011;32278;51.810;4.712;2023-06-14T13:30:04;2.45;;;1.25;;
46551;SDS011;32278;51.810;4.712;2023-06-14T13:32:30;4.03;;;1.48;;
46551;SDS011;32278;51.810;4.712;2023-06-14T13:34:56;3.50;;;1.15;;
46551;SDS011;32278;51.810;4.712;2023-06-14T13:37:22;4.05;;;1.67;;
46551;SDS011;32278;51.810;4.712;2023-06-14T13:39:49;1.98;;;1.48;;
46551;SDS011;32278;51.810;4.712;2023-06-14T13:42:15;4.13;;;1.67;;
46551;SDS011;32278;51.810;4.712;2023-06-14T13:44:41;4.43;;;1.38;;
46551;SDS011;32278;51.810;4.712;2023-06-14T13:47:07;5.22;;;1.45;;
46551;SDS011;32278;51.810;4.712;2023-06-14T13:49:33;4.68;;;1.95;;
46551;SDS011;32278;51.810;4.712;2023-06-14T13:52:00;2.97;;;1.55;;
46551;SDS011;32278;51.810;4.712;2023-06-14T13:54:26;4.47;;;2.25;;
46551;SDS011;32278;51.810;4.712;2023-06-14T13:56:52;3.40;;;1.55;;
46551;SDS011;32278;51.810;4.712;2023-06-14T13:59:19;2.65;;;1.70;;
46551;SDS011;32278;51.810;4.712;2023-06-14T14:01:45;5.15;;;1.70;;
46551;SDS011;32278;51.810;4.712;2023-06-14T14:04:11;5.00;;;1.85;;
46551;SDS011;32278;51.810;4.712;2023-06-14T14:06:37;2.05;;;1.67;;
46551;SDS011;32278;51.810;4.712;2023-06-14T14:09:03;2.95;;;1.85;;
46551;SDS011;32278;51.810;4.712;2023-06-14T14:11:29;5.25;;;1.70;;
46551;SDS011;32278;51.810;4.712;2023-06-14T14:13:58;3.80;;;1.58;;
46551;SDS011;32278;51.810;4.712;2023-06-14T14:16:24;3.90;;;1.40;;
46551;SDS011;32278;51.810;4.712;2023-06-14T14:18:50;3.05;;;1.20;;
46551;SDS011;32278;51.810;4.712;2023-06-14T14:21:16;4.50;;;1.70;;
46551;SDS011;32278;51.810;4.712;2023-06-14T14:23:42;4.47;;;1.35;;
46551;SDS011;32278;51.810;4.712;2023-06-14T14:26:10;4.20;;;1.70;;
46551;SDS011;32278;51.810;4.712;2023-06-14T14:28:36;2.47;;;1.52;;
46551;SDS011;32278;51.810;4.712;2023-06-14T14:31:02;3.22;;;1.40;;
46551;SDS011;32278;51.810;4.712;2023-06-14T14:33:28;3.05;;;1.30;;
46551;SDS011;32278;51.810;4.712;2023-06-14T14:35:54;1.77;;;1.25;;
46551;SDS011;32278;51.810;4.712;2023-06-14T14:38:20;5.03;;;1.38;;
46551;SDS011;32278;51.810;4.712;2023-06-14T14:40:46;2.70;;;1.50;;
46551;SDS011;32278;51.810;4.712;2023-06-14T14:43:13;1.80;;;1.30;;
46551;SDS011;32278;51.810;4.712;2023-06-14T14:45:39;3.80;;;1.52;;
46551;SDS011;32278;51.810;4.712;2023-06-14T14:48:05;1.30;;;1.20;;
46551;SDS011;32278;51.810;4.712;2023-06-14T14:50:32;2.58;;;1.15;;
46551;SDS011;32278;51.810;4.712;2023-06-14T14:52:58;3.80;;;1.15;;
46551;SDS011;32278;51.810;4.712;2023-06-14T14:55:24;2.05;;;1.23;;